sensor_id;sensor_type;location;lat;lon;timestamp;pressure;altitude;pressure_sealevel;temperature;humidity
77303;BME280;66363;49.828;7.856;2023-03-23T00:00:28;99348.78;;;13.46;50.48
77303;BME280;66363;49.828;7.856;2023-03-23T00:02:54;99341.34;;;13.40;50.87
77303;BME280;66363;49.828;7.856;2023-03-23T00:05:20;99336.28;;;13.47;50.58
77303;BME280;66363;49.828;7.856;2023-03-23T00:07:47;99325.09;;;13.43;50.48
77303;BME280;66363;49.828;7.856;2023-03-23T00:10:13;99314.97;;;13.47;49.97
77303;BME280;66363;49.828;7.856;2023-03-23T00:12:39;99325.34;;;13.50;51.02
77303;BME280;66363;49.828;7.856;2023-03-23T00:15:07;99337.38;;;13.54;51.12
77303;BME280;66363;49.828;7.856;2023-03-23T00:17:34;99328.78;;;13.60;50.71
77303;BME280;66363;49.828;7.856;2023-03-23T00:20:00;99331.16;;;13.63;50.26
77303;BME280;66363;49.828;7.856;2023-03-23T00:22:26;99318.81;;;13.62;51.65
77303;BME280;66363;49.828;7.856;2023-03-23T00:24:53;99323.88;;;13.65;50.36
77303;BME280;66363;49.828;7.856;2023-03-23T00:27:20;99330.91;;;13.56;51.24
77303;BME280;66363;49.828;7.856;2023-03-23T00:29:45;99322.59;;;13.69;50.46
77303;BME280;66363;49.828;7.856;2023-03-23T00:32:12;99310.63;;;13.73;50.05
77303;BME280;66363;49.828;7.856;2023-03-23T00:34:38;99317.19;;;13.79;49.96
77303;BME280;66363;49.828;7.856;2023-03-23T00:37:04;99307.06;;;13.82;49.90
77303;BME280;66363;49.828;7.856;2023-03-23T00:39:30;99321.59;;;13.98;49.77
77303;BME280;66363;49.828;7.856;2023-03-23T00:41:57;99289.03;;;13.94;49.15
77303;BME280;66363;49.828;7.856;2023-03-23T00:44:22;99317.72;;;13.82;50.50
77303;BME280;66363;49.828;7.856;2023-03-23T00:46:49;99313.00;;;13.76;50.00
77303;BME280;66363;49.828;7.856;2023-03-23T00:49:15;99308.31;;;14.06;48.49
77303;BME280;66363;49.828;7.856;2023-03-23T00:51:42;99297.81;;;14.04;48.40
77303;BME280;66363;49.828;7.856;2023-03-23T00:54:07;99301.41;;;14.13;48.47
77303;BME280;66363;49.828;7.856;2023-03-23T00:56:33;99308.38;;;14.23;47.44
77303;BME280;66363;49.828;7.856;2023-03-23T00:59:00;99304.47;;;14.18;48.32
77303;BME280;66363;49.828;7.856;2023-03-23T01:01:26;99294.84;;;14.07;48.52
77303;BME280;66363;49.828;7.856;2023-03-23T01:03:52;99314.44;;;13.98;48.59
77303;BME280;66363;49.828;7.856;2023-03-23T01:06:17;99316.31;;;14.06;47.99
77303;BME280;66363;49.828;7.856;2023-03-23T01:08:43;99301.16;;;14.06;47.99
77303;BME280;66363;49.828;7.856;2023-03-23T01:11:08;99317.13;;;14.16;48.13
77303;BME280;66363;49.828;7.856;2023-03-23T01:13:34;99291.44;;;14.15;48.00
77303;BME280;66363;49.828;7.856;2023-03-23T01:16:02;99295.47;;;14.19;48.00
77303;BME280;66363;49.828;7.856;2023-03-23T01:18:27;99295.31;;;14.20;47.75
77303;BME280;66363;49.828;7.856;2023-03-23T01:20:53;99301.66;;;14.19;47.59
77303;BME280;66363;49.828;7.856;2023-03-23T01:23:18;99292.97;;;14.17;47.75
77303;BME280;66363;49.828;7.856;2023-03-23T01:25:44;99260.09;;;13.99;49.32
77303;BME280;66363;49.828;7.856;2023-03-23T01:28:10;99281.84;;;13.77;53.75
77303;BME280;66363;49.828;7.856;2023-03-23T01:30:35;99275.84;;;13.47;52.31
77303;BME280;66363;49.828;7.856;2023-03-23T01:33:02;99271.19;;;13.49;51.79
77303;BME280;66363;49.828;7.856;2023-03-23T01:35:28;99283.81;;;13.47;52.15
77303;BME280;66363;49.828;7.856;2023-03-23T01:37:54;99285.50;;;13.48;51.75
77303;BME280;66363;49.828;7.856;2023-03-23T01:40:19;99262.84;;;13.62;51.30
77303;BME280;66363;49.828;7.856;2023-03-23T01:42:45;99269.25;;;13.69;51.22
77303;BME280;66363;49.828;7.856;2023-03-23T01:45:27;99269.50;;;13.76;51.22
77303;BME280;66363;49.828;7.856;2023-03-23T01:48:03;99259.22;;;13.81;50.71
77303;BME280;66363;49.828;7.856;2023-03-23T01:50:34;99267.34;;;13.79;50.72
77303;BME280;66363;49.828;7.856;2023-03-23T01:53:02;99260.91;;;13.82;50.89
77303;BME280;66363;49.828;7.856;2023-03-23T01:55:30;99265.25;;;13.83;50.55
77303;BME280;66363;49.828;7.856;2023-03-23T01:57:56;99264.78;;;13.87;51.05
77303;BME280;66363;49.828;7.856;2023-03-23T02:00:23;99247.19;;;13.77;51.09
77303;BME280;66363;49.828;7.856;2023-03-23T02:02:50;99265.53;;;13.80;51.33
77303;BME280;66363;49.828;7.856;2023-03-23T02:05:25;99250.47;;;13.88;50.98
77303;BME280;66363;49.828;7.856;2023-03-23T02:07:53;99251.06;;;13.82;51.76
77303;BME280;66363;49.828;7.856;2023-03-23T02:10:19;99248.63;;;13.71;52.38
77303;BME280;66363;49.828;7.856;2023-03-23T02:12:45;99258.84;;;13.76;53.28
77303;BME280;66363;49.828;7.856;2023-03-23T02:15:10;99264.50;;;13.63;53.34
77303;BME280;66363;49.828;7.856;2023-03-23T02:17:40;99241.34;;;13.46;54.85
77303;BME280;66363;49.828;7.856;2023-03-23T02:20:21;99244.28;;;13.15;56.45
77303;BME280;66363;49.828;7.856;2023-03-23T02:23:20;99255.06;;;13.04;57.55
77303;BME280;66363;49.828;7.856;2023-03-23T02:26:07;99252.88;;;12.90;57.60
77303;BME280;66363;49.828;7.856;2023-03-23T02:29:03;99247.97;;;12.95;56.96
77303;BME280;66363;49.828;7.856;2023-03-23T02:31:45;99249.19;;;13.01;57.10
77303;BME280;66363;49.828;7.856;2023-03-23T02:34:16;99240.47;;;13.08;56.54
77303;BME280;66363;49.828;7.856;2023-03-23T02:36:46;99226.41;;;13.25;55.64
77303;BME280;66363;49.828;7.856;2023-03-23T02:39:19;99224.50;;;13.18;56.01
77303;BME280;66363;49.828;7.856;2023-03-23T02:41:47;99239.13;;;13.32;55.60
77303;BME280;66363;49.828;7.856;2023-03-23T02:44:16;99232.28;;;13.29;55.44
77303;BME280;66363;49.828;7.856;2023-03-23T02:46:43;99219.78;;;13.30;55.12
77303;BME280;66363;49.828;7.856;2023-03-23T02:49:12;99228.03;;;13.36;55.35
77303;BME280;66363;49.828;7.856;2023-03-23T02:51:44;99221.72;;;13.37;55.86
77303;BME280;66363;49.828;7.856;2023-03-23T02:54:12;99194.59;;;13.24;56.15
77303;BME280;66363;49.828;7.856;2023-03-23T02:56:40;99209.91;;;13.22;57.85
77303;BME280;66363;49.828;7.856;2023-03-23T02:59:06;99213.16;;;13.16;57.02
77303;BME280;66363;49.828;7.856;2023-03-23T03:01:51;99216.22;;;13.11;58.16
77303;BME280;66363;49.828;7.856;2023-03-23T03:04:22;99221.53;;;13.11;56.78
77303;BME280;66363;49.828;7.856;2023-03-23T03:07:01;99207.66;;;13.08;56.87
77303;BME280;66363;49.828;7.856;2023-03-23T03:09:38;99203.19;;;13.08;57.29
77303;BME280;66363;49.828;7.856;2023-03-23T03:12:08;99228.13;;;13.17;56.58
77303;BME280;66363;49.828;7.856;2023-03-23T03:14:41;99212.59;;;13.03;57.96
77303;BME280;66363;49.828;7.856;2023-03-23T03:17:17;99194.44;;;12.88;58.85
77303;BME280;66363;49.828;7.856;2023-03-23T03:19:48;99205.38;;;12.85;58.36
77303;BME280;66363;49.828;7.856;2023-03-23T03:22:16;99215.59;;;12.90;58.36
77303;BME280;66363;49.828;7.856;2023-03-23T03:24:44;99199.47;;;12.91;57.72
77303;BME280;66363;49.828;7.856;2023-03-23T03:27:12;99205.50;;;12.84;59.24
77303;BME280;66363;49.828;7.856;2023-03-23T03:29:40;99212.78;;;12.91;57.71
77303;BME280;66363;49.828;7.856;2023-03-23T03:32:09;99223.38;;;13.01;57.29
77303;BME280;66363;49.828;7.856;2023-03-23T03:34:37;99218.75;;;13.03;57.69
77303;BME280;66363;49.828;7.856;2023-03-23T03:37:04;99264.16;;;13.11;56.95
77303;BME280;66363;49.828;7.856;2023-03-23T03:39:34;99231.78;;;13.16;56.12
77303;BME280;66363;49.828;7.856;2023-03-23T03:42:00;99241.03;;;13.21;56.04
77303;BME280;66363;49.828;7.856;2023-03-23T03:44:25;99234.56;;;13.14;57.29
77303;BME280;66363;49.828;7.856;2023-03-23T03:46:51;99241.31;;;13.18;57.36
77303;BME280;66363;49.828;7.856;2023-03-23T03:49:17;99257.69;;;13.14;57.41
77303;BME280;66363;49.828;7.856;2023-03-23T03:51:43;99243.13;;;13.08;57.08
77303;BME280;66363;49.828;7.856;2023-03-23T03:54:09;99250.28;;;13.08;58.06
77303;BME280;66363;49.828;7.856;2023-03-23T03:56:36;99245.38;;;13.03;58.58
77303;BME280;66363;49.828;7.856;2023-03-23T03:59:02;99256.03;;;13.13;57.56
77303;BME280;66363;49.828;7.856;2023-03-23T04:01:27;99272.69;;;13.15;58.00
77303;BME280;66363;49.828;7.856;2023-03-23T04:03:53;99258.53;;;13.14;58.17
77303;BME280;66363;49.828;7.856;2023-03-23T04:06:19;99255.06;;;13.04;58.39
77303;BME280;66363;49.828;7.856;2023-03-23T04:08:45;99260.53;;;13.03;58.85
77303;BME280;66363;49.828;7.856;2023-03-23T04:11:11;99248.25;;;12.92;60.03
77303;BME280;66363;49.828;7.856;2023-03-23T04:13:39;99253.28;;;12.95;60.10
77303;BME280;66363;49.828;7.856;2023-03-23T04:16:05;99253.00;;;12.88;59.97
77303;BME280;66363;49.828;7.856;2023-03-23T04:18:31;99248.25;;;12.82;60.43
77303;BME280;66363;49.828;7.856;2023-03-23T04:20:57;99281.19;;;12.91;60.28
77303;BME280;66363;49.828;7.856;2023-03-23T04:23:23;99276.13;;;12.88;60.58
77303;BME280;66363;49.828;7.856;2023-03-23T04:25:50;99266.19;;;12.80;60.87
77303;BME280;66363;49.828;7.856;2023-03-23T04:28:16;99274.75;;;12.84;61.22
77303;BME280;66363;49.828;7.856;2023-03-23T04:30:43;99260.44;;;12.75;61.18
77303;BME280;66363;49.828;7.856;2023-03-23T04:33:10;99263.81;;;12.77;61.32
77303;BME280;66363;49.828;7.856;2023-03-23T04:35:35;99250.41;;;12.69;61.68
77303;BME280;66363;49.828;7.856;2023-03-23T04:38:01;99259.22;;;12.70;62.66
77303;BME280;66363;49.828;7.856;2023-03-23T04:40:26;99257.84;;;12.56;63.19
77303;BME280;66363;49.828;7.856;2023-03-23T04:42:52;99267.34;;;12.49;63.74
77303;BME280;66363;49.828;7.856;2023-03-23T04:45:20;99277.72;;;12.52;63.72
77303;BME280;66363;49.828;7.856;2023-03-23T04:47:49;99263.59;;;12.42;64.19
77303;BME280;66363;49.828;7.856;2023-03-23T04:50:15;99275.91;;;12.52;63.78
77303;BME280;66363;49.828;7.856;2023-03-23T04:52:41;99277.84;;;12.50;64.59
77303;BME280;66363;49.828;7.856;2023-03-23T04:55:08;99274.25;;;12.42;65.24
77303;BME280;66363;49.828;7.856;2023-03-23T04:57:34;99272.00;;;12.37;65.48
77303;BME280;66363;49.828;7.856;2023-03-23T05:00:00;99272.28;;;12.34;66.04
77303;BME280;66363;49.828;7.856;2023-03-23T05:02:25;99271.56;;;12.32;65.31
77303;BME280;66363;49.828;7.856;2023-03-23T05:04:53;99274.09;;;12.24;66.57
77303;BME280;66363;49.828;7.856;2023-03-23T05:07:18;99244.00;;;12.14;66.83
77303;BME280;66363;49.828;7.856;2023-03-23T05:09:46;99273.38;;;12.22;67.54
77303;BME280;66363;49.828;7.856;2023-03-23T05:12:13;99268.22;;;12.20;66.77
77303;BME280;66363;49.828;7.856;2023-03-23T05:14:40;99265.84;;;12.17;67.03
77303;BME280;66363;49.828;7.856;2023-03-23T05:17:06;99272.41;;;12.23;67.46
77303;BME280;66363;49.828;7.856;2023-03-23T05:19:31;99274.50;;;12.10;67.77
77303;BME280;66363;49.828;7.856;2023-03-23T05:21:59;99266.97;;;12.15;68.03
77303;BME280;66363;49.828;7.856;2023-03-23T05:24:24;99274.06;;;12.05;68.82
77303;BME280;66363;49.828;7.856;2023-03-23T05:26:50;99275.19;;;12.02;68.73
77303;BME280;66363;49.828;7.856;2023-03-23T05:29:16;99292.00;;;12.03;69.33
77303;BME280;66363;49.828;7.856;2023-03-23T05:31:42;99290.56;;;11.99;69.75
77303;BME280;66363;49.828;7.856;2023-03-23T05:34:07;99276.56;;;11.97;69.89
77303;BME280;66363;49.828;7.856;2023-03-23T05:36:33;99292.00;;;11.93;70.47
77303;BME280;66363;49.828;7.856;2023-03-23T05:39:00;99297.00;;;11.86;70.75
77303;BME280;66363;49.828;7.856;2023-03-23T05:41:26;99285.66;;;11.84;70.50
77303;BME280;66363;49.828;7.856;2023-03-23T05:43:51;99302.06;;;11.99;70.35
77303;BME280;66363;49.828;7.856;2023-03-23T05:46:17;99294.91;;;11.90;70.86
77303;BME280;66363;49.828;7.856;2023-03-23T05:48:42;99299.66;;;11.96;70.99
77303;BME280;66363;49.828;7.856;2023-03-23T05:51:08;99295.50;;;11.94;71.08
77303;BME280;66363;49.828;7.856;2023-03-23T05:53:34;99274.22;;;11.94;70.69
77303;BME280;66363;49.828;7.856;2023-03-23T05:56:01;99288.19;;;11.96;71.12
77303;BME280;66363;49.828;7.856;2023-03-23T05:58:27;99303.16;;;11.97;71.50
77303;BME280;66363;49.828;7.856;2023-03-23T06:00:53;99292.41;;;11.98;71.04
77303;BME280;66363;49.828;7.856;2023-03-23T06:03:18;99301.06;;;12.00;70.98
77303;BME280;66363;49.828;7.856;2023-03-23T06:05:44;99304.16;;;11.96;71.45
77303;BME280;66363;49.828;7.856;2023-03-23T06:08:10;99293.94;;;11.91;72.22
77303;BME280;66363;49.828;7.856;2023-03-23T06:10:36;99301.78;;;11.93;72.06
77303;BME280;66363;49.828;7.856;2023-03-23T06:13:03;99316.63;;;11.95;71.87
77303;BME280;66363;49.828;7.856;2023-03-23T06:15:29;99282.31;;;12.02;71.92
77303;BME280;66363;49.828;7.856;2023-03-23T06:17:55;99298.81;;;11.96;71.90
77303;BME280;66363;49.828;7.856;2023-03-23T06:20:23;99304.88;;;12.07;71.93
77303;BME280;66363;49.828;7.856;2023-03-23T06:22:48;99316.91;;;12.02;72.22
77303;BME280;66363;49.828;7.856;2023-03-23T06:25:14;99319.00;;;12.08;72.31
77303;BME280;66363;49.828;7.856;2023-03-23T06:27:39;99335.69;;;12.10;71.74
77303;BME280;66363;49.828;7.856;2023-03-23T06:30:08;99328.81;;;12.07;71.71
77303;BME280;66363;49.828;7.856;2023-03-23T06:32:34;99326.72;;;12.11;72.13
77303;BME280;66363;49.828;7.856;2023-03-23T06:34:59;99338.91;;;12.13;71.90
77303;BME280;66363;49.828;7.856;2023-03-23T06:37:25;99330.66;;;12.16;71.35
77303;BME280;66363;49.828;7.856;2023-03-23T06:39:51;99321.69;;;12.17;71.97
77303;BME280;66363;49.828;7.856;2023-03-23T06:42:16;99319.03;;;12.27;71.43
77303;BME280;66363;49.828;7.856;2023-03-23T06:44:42;99312.31;;;12.23;71.63
77303;BME280;66363;49.828;7.856;2023-03-23T06:47:09;99322.25;;;12.31;71.41
77303;BME280;66363;49.828;7.856;2023-03-23T06:49:35;99319.03;;;12.27;71.15
77303;BME280;66363;49.828;7.856;2023-03-23T06:52:01;99314.41;;;12.48;70.66
77303;BME280;66363;49.828;7.856;2023-03-23T06:54:26;99323.66;;;12.64;70.36
77303;BME280;66363;49.828;7.856;2023-03-23T06:56:52;99329.66;;;12.75;70.75
77303;BME280;66363;49.828;7.856;2023-03-23T06:59:18;99331.63;;;12.83;69.64
77303;BME280;66363;49.828;7.856;2023-03-23T07:01:43;99322.53;;;12.95;69.77
77303;BME280;66363;49.828;7.856;2023-03-23T07:04:10;99319.09;;;13.12;69.12
77303;BME280;66363;49.828;7.856;2023-03-23T07:06:36;99313.38;;;13.07;69.46
77303;BME280;66363;49.828;7.856;2023-03-23T07:09:01;99322.53;;;12.95;69.93
77303;BME280;66363;49.828;7.856;2023-03-23T07:11:27;99323.38;;;12.96;69.34
77303;BME280;66363;49.828;7.856;2023-03-23T07:13:53;99346.63;;;12.94;69.02
77303;BME280;66363;49.828;7.856;2023-03-23T07:16:18;99356.16;;;12.96;69.12
77303;BME280;66363;49.828;7.856;2023-03-23T07:18:44;99335.56;;;12.88;69.30
77303;BME280;66363;49.828;7.856;2023-03-23T07:21:11;99334.25;;;13.02;68.36
77303;BME280;66363;49.828;7.856;2023-03-23T07:23:37;99326.97;;;13.04;67.76
77303;BME280;66363;49.828;7.856;2023-03-23T07:26:03;99346.03;;;13.09;68.01
77303;BME280;66363;49.828;7.856;2023-03-23T07:28:28;99347.03;;;13.18;67.54
77303;BME280;66363;49.828;7.856;2023-03-23T07:30:54;99347.41;;;13.33;67.45
77303;BME280;66363;49.828;7.856;2023-03-23T07:33:20;99352.72;;;13.33;67.61
77303;BME280;66363;49.828;7.856;2023-03-23T07:35:45;99358.03;;;13.42;66.38
77303;BME280;66363;49.828;7.856;2023-03-23T07:38:12;99360.09;;;13.58;65.38
77303;BME280;66363;49.828;7.856;2023-03-23T07:40:38;99359.09;;;13.59;65.38
77303;BME280;66363;49.828;7.856;2023-03-23T07:43:04;99376.78;;;13.60;65.23
77303;BME280;66363;49.828;7.856;2023-03-23T07:45:30;99377.34;;;13.54;65.71
77303;BME280;66363;49.828;7.856;2023-03-23T07:47:55;99379.72;;;13.67;65.14
77303;BME280;66363;49.828;7.856;2023-03-23T07:50:21;99387.03;;;13.55;65.34
77303;BME280;66363;49.828;7.856;2023-03-23T07:52:47;99359.53;;;13.54;65.34
77303;BME280;66363;49.828;7.856;2023-03-23T07:55:14;99368.19;;;13.66;64.84
77303;BME280;66363;49.828;7.856;2023-03-23T07:57:40;99368.19;;;13.66;65.27
77303;BME280;66363;49.828;7.856;2023-03-23T08:00:07;99377.31;;;13.73;65.26
77303;BME280;66363;49.828;7.856;2023-03-23T08:02:32;99382.50;;;13.75;64.98
77303;BME280;66363;49.828;7.856;2023-03-23T08:04:58;99387.13;;;13.73;64.69
77303;BME280;66363;49.828;7.856;2023-03-23T08:07:23;99384.63;;;13.62;64.78
77303;BME280;66363;49.828;7.856;2023-03-23T08:09:49;99419.84;;;13.55;64.04
77303;BME280;66363;49.828;7.856;2023-03-23T08:12:16;99416.34;;;13.55;64.45
77303;BME280;66363;49.828;7.856;2023-03-23T08:14:41;99400.78;;;13.60;64.11
77303;BME280;66363;49.828;7.856;2023-03-23T08:17:07;99415.56;;;13.82;63.76
77303;BME280;66363;49.828;7.856;2023-03-23T08:19:33;99432.63;;;13.99;62.98
77303;BME280;66363;49.828;7.856;2023-03-23T08:21:58;99394.16;;;14.01;62.54
77303;BME280;66363;49.828;7.856;2023-03-23T08:24:24;99399.84;;;14.34;62.18
77303;BME280;66363;49.828;7.856;2023-03-23T08:26:49;99396.63;;;14.57;60.88
77303;BME280;66363;49.828;7.856;2023-03-23T08:29:16;99407.56;;;14.64;61.16
77303;BME280;66363;49.828;7.856;2023-03-23T08:31:42;99422.81;;;14.54;60.97
77303;BME280;66363;49.828;7.856;2023-03-23T08:34:07;99411.59;;;14.50;60.87
77303;BME280;66363;49.828;7.856;2023-03-23T08:36:34;99409.78;;;14.69;60.12
77303;BME280;66363;49.828;7.856;2023-03-23T08:39:00;99407.09;;;14.86;58.52
77303;BME280;66363;49.828;7.856;2023-03-23T08:41:26;99406.97;;;15.06;57.50
77303;BME280;66363;49.828;7.856;2023-03-23T08:43:52;99415.13;;;15.04;56.30
77303;BME280;66363;49.828;7.856;2023-03-23T08:46:19;99412.91;;;15.00;56.11
77303;BME280;66363;49.828;7.856;2023-03-23T08:48:45;99418.25;;;15.00;55.89
77303;BME280;66363;49.828;7.856;2023-03-23T08:51:10;99419.31;;;15.50;54.36
77303;BME280;66363;49.828;7.856;2023-03-23T08:53:36;99409.56;;;15.59;54.70
77303;BME280;66363;49.828;7.856;2023-03-23T08:56:06;99417.19;;;15.54;54.61
77303;BME280;66363;49.828;7.856;2023-03-23T08:58:32;99422.59;;;15.62;54.57
77303;BME280;66363;49.828;7.856;2023-03-23T09:00:57;99440.50;;;15.44;54.91
77303;BME280;66363;49.828;7.856;2023-03-23T09:03:24;99429.69;;;15.27;55.56
77303;BME280;66363;49.828;7.856;2023-03-23T09:05:50;99428.78;;;14.66;57.27
77303;BME280;66363;49.828;7.856;2023-03-23T09:08:15;99425.41;;;14.36;58.68
77303;BME280;66363;49.828;7.856;2023-03-23T09:10:41;99423.28;;;14.49;58.56
77303;BME280;66363;49.828;7.856;2023-03-23T09:13:06;99436.59;;;14.77;57.80
77303;BME280;66363;49.828;7.856;2023-03-23T09:15:32;99409.22;;;15.18;58.78
77303;BME280;66363;49.828;7.856;2023-03-23T09:17:58;99442.16;;;15.63;56.58
77303;BME280;66363;49.828;7.856;2023-03-23T09:20:27;99433.66;;;15.67;56.24
77303;BME280;66363;49.828;7.856;2023-03-23T09:22:54;99410.56;;;15.58;57.86
77303;BME280;66363;49.828;7.856;2023-03-23T09:25:25;99422.38;;;15.55;55.66
77303;BME280;66363;49.828;7.856;2023-03-23T09:27:52;99433.78;;;15.40;55.60
77303;BME280;66363;49.828;7.856;2023-03-23T09:30:19;99431.78;;;15.42;57.44
77303;BME280;66363;49.828;7.856;2023-03-23T09:32:45;99430.00;;;14.89;55.53
77303;BME280;66363;49.828;7.856;2023-03-23T09:35:11;99430.00;;;14.89;55.19
77303;BME280;66363;49.828;7.856;2023-03-23T09:37:39;99428.03;;;14.73;57.59
77303;BME280;66363;49.828;7.856;2023-03-23T09:40:06;99420.50;;;14.41;57.86
77303;BME280;66363;49.828;7.856;2023-03-23T09:42:48;99449.00;;;14.13;59.28
77303;BME280;66363;49.828;7.856;2023-03-23T09:45:23;99434.38;;;13.80;60.30
77303;BME280;66363;49.828;7.856;2023-03-23T09:50:42;99439.97;;;13.50;63.55
77303;BME280;66363;49.828;7.856;2023-03-23T09:53:15;99438.00;;;13.42;63.58
77303;BME280;66363;49.828;7.856;2023-03-23T09:55:43;99428.03;;;13.44;62.97
77303;BME280;66363;49.828;7.856;2023-03-23T09:58:12;99434.44;;;13.71;63.30
77303;BME280;66363;49.828;7.856;2023-03-23T10:00:41;99431.63;;;13.72;65.27
77303;BME280;66363;49.828;7.856;2023-03-23T10:03:13;99453.50;;;13.76;64.09
77303;BME280;66363;49.828;7.856;2023-03-23T10:05:40;99469.22;;;13.69;64.41
77303;BME280;66363;49.828;7.856;2023-03-23T10:08:13;99457.63;;;13.51;65.11
77303;BME280;66363;49.828;7.856;2023-03-23T10:10:48;99438.50;;;13.55;67.00
77303;BME280;66363;49.828;7.856;2023-03-23T10:13:23;99440.09;;;13.95;64.23
77303;BME280;66363;49.828;7.856;2023-03-23T10:15:51;99447.44;;;14.48;64.98
77303;BME280;66363;49.828;7.856;2023-03-23T10:18:21;99453.38;;;14.42;62.64
77303;BME280;66363;49.828;7.856;2023-03-23T10:20:50;99455.28;;;14.77;62.80
77303;BME280;66363;49.828;7.856;2023-03-23T10:23:42;99462.84;;;14.99;60.76
77303;BME280;66363;49.828;7.856;2023-03-23T10:26:15;99454.97;;;15.15;60.31
77303;BME280;66363;49.828;7.856;2023-03-23T10:28:47;99447.91;;;15.50;59.02
77303;BME280;66363;49.828;7.856;2023-03-23T10:31:17;99450.63;;;16.10;58.31
77303;BME280;66363;49.828;7.856;2023-03-23T10:33:46;99448.25;;;17.72;52.61
77303;BME280;66363;49.828;7.856;2023-03-23T10:36:16;99446.91;;;17.84;50.54
77303;BME280;66363;49.828;7.856;2023-03-23T10:38:49;99443.03;;;18.34;49.56
77303;BME280;66363;49.828;7.856;2023-03-23T10:41:16;99426.94;;;19.56;46.32
77303;BME280;66363;49.828;7.856;2023-03-23T10:43:42;99433.09;;;19.65;45.82
77303;BME280;66363;49.828;7.856;2023-03-23T10:46:19;99434.16;;;18.34;48.79
77303;BME280;66363;49.828;7.856;2023-03-23T10:48:49;99429.28;;;17.82;49.77
77303;BME280;66363;49.828;7.856;2023-03-23T10:51:19;99435.03;;;17.30;50.79
77303;BME280;66363;49.828;7.856;2023-03-23T10:53:50;99438.50;;;16.74;52.83
77303;BME280;66363;49.828;7.856;2023-03-23T10:56:22;99446.03;;;15.94;55.08
77303;BME280;66363;49.828;7.856;2023-03-23T10:58:48;99447.38;;;15.46;57.13
77303;BME280;66363;49.828;7.856;2023-03-23T11:01:13;99478.28;;;15.05;58.06
77303;BME280;66363;49.828;7.856;2023-03-23T11:03:41;99462.50;;;14.84;58.22
77303;BME280;66363;49.828;7.856;2023-03-23T11:06:09;99477.72;;;14.56;60.23
77303;BME280;66363;49.828;7.856;2023-03-23T11:08:36;99485.16;;;14.63;61.54
77303;BME280;66363;49.828;7.856;2023-03-23T11:11:17;99485.34;;;14.97;60.29
77303;BME280;66363;49.828;7.856;2023-03-23T11:13:44;99473.22;;;15.20;59.61
77303;BME280;66363;49.828;7.856;2023-03-23T11:16:21;99489.06;;;15.39;59.33
77303;BME280;66363;49.828;7.856;2023-03-23T11:18:47;99467.06;;;15.63;58.87
77303;BME280;66363;49.828;7.856;2023-03-23T11:21:13;99481.50;;;15.70;58.23
77303;BME280;66363;49.828;7.856;2023-03-23T11:23:42;99489.09;;;15.21;59.71
77303;BME280;66363;49.828;7.856;2023-03-23T11:26:13;99468.38;;;14.52;62.19
77303;BME280;66363;49.828;7.856;2023-03-23T11:28:43;99501.94;;;14.55;62.77
77303;BME280;66363;49.828;7.856;2023-03-23T11:31:11;99484.44;;;14.33;63.47
77303;BME280;66363;49.828;7.856;2023-03-23T11:33:41;99486.00;;;14.63;63.12
77303;BME280;66363;49.828;7.856;2023-03-23T11:36:07;99475.00;;;14.66;62.52
77303;BME280;66363;49.828;7.856;2023-03-23T11:38:34;99477.00;;;14.82;62.95
77303;BME280;66363;49.828;7.856;2023-03-23T11:41:00;99480.16;;;14.77;62.16
77303;BME280;66363;49.828;7.856;2023-03-23T11:43:27;99486.94;;;14.44;63.17
77303;BME280;66363;49.828;7.856;2023-03-23T11:46:05;99469.03;;;14.27;64.06
77303;BME280;66363;49.828;7.856;2023-03-23T11:48:42;99482.69;;;14.14;64.41
77303;BME280;66363;49.828;7.856;2023-03-23T11:51:11;99481.34;;;14.01;65.48
77303;BME280;66363;49.828;7.856;2023-03-23T11:53:47;99488.31;;;13.65;69.07
77303;BME280;66363;49.828;7.856;2023-03-23T11:56:21;99470.81;;;13.33;68.75
77303;BME280;66363;49.828;7.856;2023-03-23T11:58:49;99477.28;;;13.31;69.42
77303;BME280;66363;49.828;7.856;2023-03-23T12:04:32;99458.91;;;13.37;69.38
77303;BME280;66363;49.828;7.856;2023-03-23T12:07:13;99448.81;;;13.41;69.11
77303;BME280;66363;49.828;7.856;2023-03-23T12:09:45;99440.69;;;13.79;68.19
77303;BME280;66363;49.828;7.856;2023-03-23T12:12:18;99440.50;;;14.27;66.28
77303;BME280;66363;49.828;7.856;2023-03-23T12:14:56;99425.59;;;15.41;62.32
77303;BME280;66363;49.828;7.856;2023-03-23T12:17:32;99426.31;;;17.36;56.52
77303;BME280;66363;49.828;7.856;2023-03-23T12:20:10;99416.25;;;17.38;54.93
77303;BME280;66363;49.828;7.856;2023-03-23T12:22:45;99412.56;;;17.07;55.74
77303;BME280;66363;49.828;7.856;2023-03-23T12:25:30;99402.50;;;17.01;56.26
77303;BME280;66363;49.828;7.856;2023-03-23T12:28:03;99393.47;;;17.26;56.39
77303;BME280;66363;49.828;7.856;2023-03-23T12:30:37;99401.19;;;16.38;57.51
77303;BME280;66363;49.828;7.856;2023-03-23T12:33:18;99404.38;;;16.34;57.36
77303;BME280;66363;49.828;7.856;2023-03-23T12:35:56;99403.78;;;16.56;57.79
77303;BME280;66363;49.828;7.856;2023-03-23T12:38:41;99399.97;;;17.56;54.42
77303;BME280;66363;49.828;7.856;2023-03-23T12:41:15;99392.44;;;18.99;49.63
77303;BME280;66363;49.828;7.856;2023-03-23T12:43:48;99382.06;;;19.86;46.93
77303;BME280;66363;49.828;7.856;2023-03-23T12:46:27;99416.47;;;19.61;47.27
77303;BME280;66363;49.828;7.856;2023-03-23T12:49:00;99411.41;;;18.13;50.05
77303;BME280;66363;49.828;7.856;2023-03-23T12:51:31;99398.31;;;17.30;52.90
77303;BME280;66363;49.828;7.856;2023-03-23T12:54:03;99402.66;;;16.91;54.24
77303;BME280;66363;49.828;7.856;2023-03-23T12:56:34;99400.56;;;16.44;54.63
77303;BME280;66363;49.828;7.856;2023-03-23T12:59:07;99416.00;;;16.08;55.52
77303;BME280;66363;49.828;7.856;2023-03-23T13:01:39;99414.06;;;15.58;57.38
77303;BME280;66363;49.828;7.856;2023-03-23T13:04:08;99410.06;;;15.19;58.70
77303;BME280;66363;49.828;7.856;2023-03-23T13:06:37;99410.13;;;15.09;59.00
77303;BME280;66363;49.828;7.856;2023-03-23T13:09:07;99400.63;;;14.89;59.58
77303;BME280;66363;49.828;7.856;2023-03-23T13:11:36;99403.13;;;14.90;60.38